Flight Track Log - Related Links

Times and Time Zones

All times are in EDT time to prevent confusion due to time zone crossing. See the SWA1035 flight status page for this flight to view local times or setup timezone preferences in your user account.

Time Position Orientation Groundspeed Altitude Reporting Facility
EDT Latitude Longitude Course Direction KTS MPH feet Rate Location/Type
Fri 02:42:53 PM 39.2650 -94.7617 212° Southwest 170 196 3,300  Level Kansas City Center
Fri 02:43:54 PM 39.2478 -94.8467 255° West 227 261 6,200 3,168 Climbing Kansas City Center
Fri 02:44:58 PM 39.2397 -94.9433 264° West 282 325 9,900 3,048 Climbing Kansas City Center
Fri 02:45:58 PM 39.2283 -95.0686 263° West 324 373 12,500 3,290 Climbing Kansas City Center
Fri 02:47:02 PM 39.2169 -95.1919 263° West 329 379 16,700 3,168 Climbing Kansas City Center
Fri 02:48:03 PM 39.2061 -95.3111 263° West 334 384 19,100 2,488 Climbing Kansas City Center
Fri 02:49:05 PM 39.1936 -95.4467 263° West 354 407 21,800 2,208 Climbing Kansas City Center
Fri 02:50:08 PM 39.1828 -95.5686 263° West 364 419 23,700 1,790 Climbing Kansas City Center
Fri 02:51:09 PM 39.1703 -95.6986 263° West 379 436 25,500 1,839 Climbing Kansas City Center
Fri 02:52:12 PM 39.1556 -95.8553 263° West 395 455 27,500 1,597 Climbing Kansas City Center
Fri 02:53:13 PM 39.1406 -95.9922 262° West 405 466 28,800 1,721 Climbing Kansas City Center
Fri 02:54:14 PM 39.1203 -96.1561 261° West 414 476 31,000 2,081 Climbing Kansas City Center
Fri 02:55:17 PM 39.1022 -96.2906 260° West 400 460 33,100 2,064 Climbing Kansas City Center
Fri 02:56:19 PM 39.0833 -96.4425 261° West 388 447 35,300 1,392 Climbing Kansas City Center
Fri 02:57:22 PM 39.0653 -96.5708 260° West 383 441 36,000 339 Climbing Kansas City Center
Fri 02:58:23 PM 39.0436 -96.7233 260° West 386 444 36,000  Level Kansas City Center
Fri 02:59:26 PM 39.0281 -96.8556 261° West 389 448 36,000  Level Kansas City Center
Fri 03:00:27 PM 39.0078 -97.0089 260° West 389 448 36,000  Level Kansas City Center
Fri 03:01:28 PM 38.9906 -97.1408 261° West 391 450 36,000  Level Kansas City Center
Fri 03:02:32 PM 38.9739 -97.2742 261° West 394 453 36,000 145 Level Kansas City Center
Fri 03:03:32 PM 38.9553 -97.4078 260° West 384 442 36,300 689 Climbing Kansas City Center
Fri 03:04:34 PM 38.9356 -97.5522 260° West 383 441 37,400 816 Climbing Kansas City Center
Fri 03:05:37 PM 38.9019 -97.7036 254° West 394 453 38,000 290 Climbing Kansas City Center
Fri 03:06:38 PM 38.8614 -97.8297 248° West 395 455 38,000  Level Kansas City Center
Fri 03:07:42 PM 38.8156 -97.9600 246° West 392 451 38,000  Level Kansas City Center
Fri 03:08:42 PM 38.7697 -98.0836 245° Southwest 388 447 38,000  Level Kansas City Center
Fri 03:09:46 PM 38.7256 -98.2075 245° Southwest 384 442 38,000  Level Kansas City Center
Fri 03:10:46 PM 38.6706 -98.3539 244° Southwest 382 440 38,000  Level Kansas City Center
Fri 03:11:50 PM 38.6250 -98.4767 245° Southwest 382 440 38,000  Level Kansas City Center
Fri 03:12:51 PM 38.5800 -98.5994 245° Southwest 382 440 38,000  Level Kansas City Center
Fri 03:13:55 PM 38.5347 -98.7208 245° Southwest 382 440 38,000  Level Kansas City Center
Fri 03:14:56 PM 38.4897 -98.8406 244° Southwest 377 434 38,000  Level Kansas City Center
Fri 03:15:56 PM 38.4344 -98.9892 245° Southwest 384 442 38,000  Level Kansas City Center
Fri 03:17:00 PM 38.3875 -99.1111 244° Southwest 385 443 38,000  Level Kansas City Center
Fri 03:18:01 PM 38.3414 -99.2342 244° Southwest 386 444 38,000  Level Kansas City Center
Fri 03:19:04 PM 38.2936 -99.3567 244° Southwest 387 445 38,000  Level Kansas City Center
Fri 03:20:04 PM 38.2464 -99.4786 244° Southwest 386 444 38,000  Level Kansas City Center
Fri 03:21:07 PM 38.1961 -99.6147 245° Southwest 384 442 38,000  Level Kansas City Center
Fri 03:22:11 PM 38.1428 -99.7497 243° Southwest 383 441 38,000  Level Kansas City Center
Fri 03:23:13 PM 38.0978 -99.8667 244° Southwest 384 442 38,000  Level Kansas City Center
Fri 03:24:13 PM 38.0447 -100.0014 243° Southwest 383 441 38,000  Level Kansas City Center
Fri 03:25:17 PM 38.0003 -100.1178 244° Southwest 383 441 38,000  Level Kansas City Center
Fri 03:26:18 PM 37.9542 -100.2333 243° Southwest 384 442 38,000  Level Kansas City Center
Fri 03:27:19 PM 37.9011 -100.3672 243° Southwest 382 440 38,000  Level Kansas City Center
Fri 03:28:23 PM 37.8561 -100.4811 243° Southwest 379 436 38,000  Level Kansas City Center
Fri 03:29:24 PM 37.8042 -100.6106 243° Southwest 374 430 38,000  Level Kansas City Center
Fri 03:30:25 PM 37.7586 -100.7236 243° Southwest 373 429 38,000  Level Kansas City Center
Fri 03:31:28 PM 37.7108 -100.8403 243° Southwest 373 429 38,000  Level Kansas City Center
Fri 03:32:29 PM 37.6644 -100.9558 243° Southwest 372 428 38,000  Level Kansas City Center
Fri 03:33:32 PM 37.6064 -101.1003 243° Southwest 383 441 38,000  Level Kansas City Center
Fri 03:34:36 PM 37.5578 -101.2186 243° Southwest 375 432 38,000  Level Kansas City Center
Fri 03:35:37 PM 37.5125 -101.3297 243° Southwest 373 429 38,000  Level Kansas City Center
Fri 03:36:37 PM 37.4594 -101.4608 243° Southwest 375 432 38,000  Level Kansas City Center
Fri 03:37:40 PM 37.4128 -101.5717 242° Southwest 375 432 38,000  Level Kansas City Center
Fri 03:38:44 PM 37.3592 -101.7033 243° Southwest 378 435 38,000  Level Kansas City Center
Fri 03:39:44 PM 37.3125 -101.8156 242° Southwest 379 436 38,000  Level Kansas City Center
Fri 03:40:26 PM 37.2733 -101.9103 243° Southwest 380 437 38,000  Level Albuquerque Center
Fri 03:41:28 PM 37.2256 -102.0250 242° Southwest 385 443 38,000  Level Albuquerque Center
Fri 03:42:30 PM 37.1692 -102.1592 242° Southwest 388 447 38,000  Level Albuquerque Center
Fri 03:43:32 PM 37.1242 -102.2753 244° Southwest 388 447 38,000  Level Albuquerque Center
Fri 03:44:34 PM 37.0728 -102.3872 240° Southwest 386 444 38,000  Level Albuquerque Center
Fri 03:45:36 PM 37.0158 -102.5197 242° Southwest 387 445 38,000  Level Albuquerque Center
Fri 03:46:38 PM 36.9708 -102.6372 244° Southwest 388 447 38,000  Level Albuquerque Center
Fri 03:47:40 PM 36.9142 -102.7714 242° Southwest 389 448 38,000  Level Albuquerque Center
Fri 03:48:42 PM 36.8639 -102.8875 242° Southwest 394 453 38,000  Level Albuquerque Center
Fri 03:49:46 PM 36.8061 -103.0214 242° Southwest 392 451 38,000  Level Albuquerque Center
Fri 03:50:46 PM 36.7569 -103.1372 242° Southwest 392 451 38,000  Level Albuquerque Center
Fri 03:51:48 PM 36.6994 -103.2697 242° Southwest 389 448 38,000  Level Albuquerque Center
Fri 03:52:50 PM 36.6494 -103.3844 242° Southwest 390 449 38,000  Level Albuquerque Center
Fri 03:53:52 PM 36.6008 -103.4989 242° Southwest 391 450 38,000  Level Albuquerque Center
Fri 03:54:54 PM 36.5397 -103.6369 241° Southwest 388 447 38,000  Level Albuquerque Center
Fri 03:55:58 PM 36.4878 -103.7544 241° Southwest 386 444 38,000  Level Albuquerque Center
Fri 03:56:58 PM 36.4367 -103.8742 242° Southwest 388 447 38,000  Level Albuquerque Center
Fri 03:58:00 PM 36.3839 -103.9883 240° Southwest 382 440 38,000  Level Albuquerque Center
Fri 03:59:02 PM 36.3319 -104.1069 241° Southwest 387 445 38,000  Level Albuquerque Center
Fri 04:00:04 PM 36.2786 -104.2236 240° Southwest 388 447 38,000  Level Albuquerque Center
Fri 04:01:06 PM 36.2153 -104.3639 241° Southwest 395 455 38,000  Level Albuquerque Center
Fri 04:02:08 PM 36.1628 -104.4817 241° Southwest 392 451 38,000  Level Albuquerque Center
Fri 04:03:10 PM 36.1114 -104.5958 241° Southwest 383 441 38,000  Level Albuquerque Center
Fri 04:04:12 PM 36.0592 -104.7100 241° Southwest 380 437 38,000  Level Albuquerque Center
Fri 04:05:14 PM 36.0078 -104.8253 241° Southwest 382 440 38,000  Level Albuquerque Center
Fri 04:06:16 PM 35.9533 -104.9431 240° Southwest 390 449 38,000  Level Albuquerque Center
Fri 04:07:18 PM 35.9006 -105.0583 241° Southwest 387 445 38,000 -709 Level Albuquerque Center
Fri 04:08:23 PM 35.8403 -105.1889 240° Southwest 378 435 36,500 -1,548 Descending Albuquerque Center
Fri 04:09:22 PM 35.7908 -105.2986 241° Southwest 368 423 34,800 -1,721 Descending Albuquerque Center
Fri 04:10:25 PM 35.7414 -105.4039 240° Southwest 358 412 33,000 -1,403 Descending Albuquerque Center
Fri 04:11:26 PM 35.6967 -105.5117 243° Southwest 353 406 31,900 -726 Descending Albuquerque Center
Fri 04:12:29 PM 35.6897 -105.6281 266° West 365 420 31,500 -1,104 Descending Albuquerque Center
Fri 04:13:31 PM 35.6611 -105.7375 252° West 356 410 29,600 -1,694 Descending Albuquerque Center
Fri 04:14:33 PM 35.5697 -105.8278 219° Southwest 334 384 28,000 -1,355 Descending Albuquerque Center
Fri 04:15:35 PM 35.5203 -105.9131 235° Southwest 325 374 26,800 -1,016 Descending Albuquerque Center
Fri 04:16:37 PM 35.4725 -106.0086 238° Southwest 327 376 25,900 -1,698 Descending Albuquerque Center
Fri 04:17:21 PM 35.4308 -106.0900 238° Southwest 335 386 23,800 -2,516 Descending Albuquerque Center
Fri 04:17:39 PM 35.4211 -106.1047 231° Southwest 334 384 23,300 -2,750 Descending Albuquerque Center
Fri 04:18:09 PM 35.3911 -106.1658 239° Southwest 340 391 21,600 -2,516 Descending Albuquerque Center
Fri 04:18:41 PM 35.3706 -106.2044 237° Southwest 341 392 20,700 -2,066 Descending Albuquerque Center
Fri 04:19:10 PM 35.3403 -106.2653 239° Southwest 343 395 19,500 -2,032 Descending Albuquerque Center
Fri 04:19:43 PM 35.3275 -106.3039 248° West 336 387 18,600 -2,300 Descending Albuquerque Center
Fri 04:20:10 PM 35.3064 -106.3756 250° West 325 374 17,200 -2,419 Descending Albuquerque Center
Fri 04:20:45 PM 35.2906 -106.4294 250° West 328 377 16,100 -1,967 Descending Albuquerque Center
Fri 04:21:11 PM 35.2733 -106.4781 247° West 323 372 15,200 -1,935 Descending Albuquerque Center
Fri 04:21:47 PM 35.2606 -106.5303 253° West 321 369 14,100 -1,180 Descending Albuquerque Center
Fri 04:22:12 PM 35.2456 -106.5761 248° West 299 344 14,000 -97 Descending Albuquerque Center
Fri 04:22:49 PM 35.2331 -106.6200 251° West 292 336 14,000  Level Albuquerque Center
Fri 04:23:12 PM 35.2192 -106.6558 245° Southwest 244 281 14,000  Level Albuquerque Center
Fri 04:23:51 PM 35.2081 -106.6958 251° West 251 289 14,000 -492 Level Albuquerque Center
Fri 04:24:13 PM 35.1836 -106.7222 221° Southwest 242 278 13,500 -1,452 Descending Albuquerque Center
Fri 04:24:53 PM 35.1478 -106.7353 197° South 254 292 12,500 -1,800 Descending Albuquerque Center
Fri 04:25:13 PM 35.1231 -106.7533 211° Southwest 230 265 11,700 -1,839 Descending Albuquerque Center
Fri 04:25:55 PM 35.1022 -106.7825 229° Southwest 230 265 10,600 -1,475 Descending Albuquerque Center
Fri 04:26:14 PM 35.0769 -106.7964 204° Southwest 190 219 10,200 -1,425 Descending Albuquerque Center
Fri 04:27:15 PM 35.0475 -106.7494 127° Southeast 181 208 8,700 -1,657 Descending Albuquerque Center
Fri 04:27:59 PM 35.0394 -106.7094 104° East 186 214 7,300 -2,000 Descending Albuquerque Center
Fri 04:28:15 PM 35.0422 -106.6939 78° East 163 188 6,700 -1,247 Descending Albuquerque Center
Fri 04:29:16 PM 35.0433 -106.6389 89° East 165 190 5,700 -778 Descending Albuquerque Center
Fri 04:30:03 PM 35.0433 -106.5942 90° East 167 192 5,300 -511 Descending Albuquerque Center

Login

Don't have an account? Register now (free) for customized features, flight alerts, and more!